Time;durP1;ratioP1;P1;durP2;ratioP2;P2;SDS_P1;SDS_P2;PMS_P1;PMS_P2;Temp;Humidity;BMP_temperature;BMP_pressure;BME280_temperature;BME280_humidity;BME280_pressure;Samples;Min_cycle;Max_cycle;Signal;HPM_P1;HPM_P2
2021/07/19 00:00:10;;;;;;;15.30;11.77;;;15.00;99.90;;;;;;5104649;28;20714;-82
2021/07/19 00:02:36;;;;;;;17.27;11.87;;;14.90;99.90;;;;;;5105197;28;20235;-82
2021/07/19 00:05:02;;;;;;;14.20;10.90;;;14.90;99.90;;;;;;5104230;28;20633;-82
2021/07/19 00:07:28;;;;;;;13.43;10.80;;;14.80;99.90;;;;;;5105386;28;20204;-82
2021/07/19 00:09:53;;;;;;;15.90;11.70;;;14.80;99.90;;;;;;5106515;28;20176;-82
2021/07/19 00:12:19;;;;;;;15.63;12.00;;;14.80;99.90;;;;;;5106430;28;20196;-82
2021/07/19 00:14:46;;;;;;;14.57;11.13;;;14.80;99.90;;;;;;5104514;28;20262;-81
2021/07/19 00:17:14;;;;;;;13.70;11.30;;;14.80;99.90;;;;;;5105711;28;20173;-82
2021/07/19 00:19:40;;;;;;;16.27;11.63;;;14.70;99.90;;;;;;5105615;28;20199;-81
2021/07/19 00:22:06;;;;;;;15.00;11.17;;;14.70;99.90;;;;;;5105613;28;20219;-82
2021/07/19 00:24:32;;;;;;;17.37;11.87;;;14.70;99.90;;;;;;5109645;28;20228;-82
2021/07/19 00:26:58;;;;;;;15.13;12.00;;;14.70;99.90;;;;;;5112994;28;20164;-82
2021/07/19 00:29:24;;;;;;;15.47;12.13;;;14.70;99.90;;;;;;5112991;28;20192;-82
2021/07/19 00:31:50;;;;;;;17.00;12.33;;;14.70;99.90;;;;;;5106591;28;20191;-82
2021/07/19 00:34:16;;;;;;;16.73;11.90;;;14.70;99.90;;;;;;5107619;28;20183;-82
2021/07/19 00:36:41;;;;;;;15.67;11.90;;;14.70;99.90;;;;;;5107819;28;20229;-82
2021/07/19 00:39:09;;;;;;;14.37;12.30;;;14.70;99.90;;;;;;5105662;28;20185;-82
2021/07/19 00:41:38;;;;;;;13.83;11.63;;;14.60;99.90;;;;;;5104890;28;20253;-82
2021/07/19 00:44:05;;;;;;;14.77;11.60;;;14.60;99.90;;;;;;5107039;28;20180;-82
2021/07/19 00:46:30;;;;;;;14.80;10.60;;;14.50;99.90;;;;;;5106674;28;20180;-82
2021/07/19 00:48:57;;;;;;;13.73;10.47;;;14.50;99.90;;;;;;5105024;28;20702;-82
2021/07/19 00:51:24;;;;;;;12.83;9.67;;;14.50;99.90;;;;;;5107801;28;20199;-82
2021/07/19 00:53:50;;;;;;;12.73;9.77;;;14.40;99.90;;;;;;5110609;28;20701;-82
2021/07/19 00:56:17;;;;;;;13.43;10.03;;;14.30;99.90;;;;;;5106787;28;20179;-82
2021/07/19 00:58:43;;;;;;;11.80;9.70;;;14.30;99.90;;;;;;5103980;28;20199;-82
2021/07/19 01:01:11;;;;;;;10.37;9.07;;;14.20;99.90;;;;;;5103117;28;20225;-82
2021/07/19 01:03:38;;;;;;;10.70;8.50;;;14.20;99.90;;;;;;5103424;28;20172;-82
2021/07/19 01:06:04;;;;;;;10.57;8.73;;;14.20;99.90;;;;;;5103042;28;20175;-82
2021/07/19 01:08:31;;;;;;;11.23;8.97;;;14.20;99.90;;;;;;5104302;28;20176;-82
2021/07/19 01:10:57;;;;;;;12.53;9.73;;;14.20;99.90;;;;;;5103076;28;20219;-82
2021/07/19 01:13:23;;;;;;;11.57;9.63;;;14.10;99.90;;;;;;5104389;28;20172;-82
2021/07/19 01:15:48;;;;;;;12.07;9.27;;;14.10;99.90;;;;;;5103711;28;20198;-82
2021/07/19 01:18:14;;;;;;;11.83;8.77;;;14.10;99.90;;;;;;5102589;28;20263;-82
2021/07/19 01:20:55;;;;;;;11.53;8.97;;;14.00;99.90;;;;;;5100817;28;20194;-82
2021/07/19 01:23:30;;;;;;;11.43;9.20;;;14.00;99.90;;;;;;5100139;28;20210;-81
2021/07/19 01:26:25;;;;;;;10.50;8.87;;;14.00;99.90;;;;;;5103600;28;20168;-82
2021/07/19 01:28:52;;;;;;;13.03;9.10;;;14.00;99.90;;;;;;5103162;28;20180;-82
2021/07/19 01:31:26;;;;;;;10.67;8.87;;;14.00;99.90;;;;;;5102560;28;20301;-82
2021/07/19 01:33:57;;;;;;;12.33;9.43;;;13.90;99.90;;;;;;5104417;28;20253;-82
2021/07/19 01:36:28;;;;;;;9.53;8.53;;;13.90;99.90;;;;;;5104900;28;20149;-82
2021/07/19 01:38:55;;;;;;;10.37;8.67;;;13.90;99.90;;;;;;5103375;28;20172;-82
2021/07/19 01:41:23;;;;;;;10.33;8.53;;;13.90;99.90;;;;;;5102376;28;20200;-82
2021/07/19 01:43:49;;;;;;;9.80;8.57;;;13.90;99.90;;;;;;5104750;28;20218;-82
2021/07/19 01:46:16;;;;;;;11.10;8.90;;;13.90;99.90;;;;;;5105368;28;20168;-82
2021/07/19 01:48:43;;;;;;;10.87;8.90;;;13.90;99.90;;;;;;5104194;28;20532;-82
2021/07/19 01:51:10;;;;;;;9.47;8.33;;;13.90;99.90;;;;;;5104108;28;20192;-81
2021/07/19 01:53:36;;;;;;;9.57;8.27;;;13.90;99.90;;;;;;5103556;28;20653;-82
2021/07/19 01:56:03;;;;;;;10.50;8.83;;;13.80;99.90;;;;;;5104211;28;20183;-81
2021/07/19 01:58:30;;;;;;;12.90;8.50;;;13.90;99.90;;;;;;5103112;28;20176;-82
2021/07/19 02:00:57;;;;;;;9.87;8.23;;;13.80;99.90;;;;;;5104502;28;20184;-82
2021/07/19 02:03:23;;;;;;;9.20;7.83;;;13.80;99.90;;;;;;5103921;28;20201;-82
2021/07/19 02:05:52;;;;;;;11.20;8.37;;;13.80;99.90;;;;;;5103746;28;20176;-82
2021/07/19 02:08:19;;;;;;;8.67;7.67;;;13.70;99.90;;;;;;5103299;28;20638;-82
2021/07/19 02:10:49;;;;;;;10.37;7.37;;;13.70;99.90;;;;;;5105649;28;20179;-81
2021/07/19 02:13:16;;;;;;;8.07;6.80;;;13.70;99.90;;;;;;5113925;28;20196;-82
2021/07/19 02:15:43;;;;;;;8.47;7.30;;;13.70;99.90;;;;;;5113212;28;20190;-82
2021/07/19 02:18:12;;;;;;;9.80;8.20;;;13.60;99.90;;;;;;5110553;28;20240;-82
2021/07/19 02:20:38;;;;;;;8.37;6.70;;;13.60;99.90;;;;;;5103257;28;20253;-82
2021/07/19 02:23:05;;;;;;;8.57;7.17;;;13.60;99.90;;;;;;5102770;28;20295;-82
2021/07/19 02:25:34;;;;;;;8.50;7.57;;;13.60;99.90;;;;;;5103374;28;20175;-82
2021/07/19 02:28:01;;;;;;;8.10;7.17;;;13.50;99.90;;;;;;5103230;28;20172;-82
2021/07/19 02:30:27;;;;;;;8.70;6.87;;;13.50;99.90;;;;;;5106225;28;20177;-82
2021/07/19 02:32:56;;;;;;;8.20;6.90;;;13.50;99.90;;;;;;5106005;28;20204;-82
2021/07/19 02:35:23;;;;;;;9.20;7.80;;;13.50;99.90;;;;;;5106678;28;20188;-82
2021/07/19 02:37:51;;;;;;;10.60;7.83;;;13.50;99.90;;;;;;5106876;28;20180;-82
2021/07/19 02:40:21;;;;;;;9.17;7.87;;;13.50;99.90;;;;;;5108828;28;20202;-82
2021/07/19 02:42:50;;;;;;;7.93;7.13;;;13.60;99.90;;;;;;5108451;28;20212;-82
2021/07/19 02:45:19;;;;;;;12.40;7.90;;;13.50;99.90;;;;;;5110871;28;20252;-82
2021/07/19 02:47:46;;;;;;;10.23;7.83;;;13.60;99.90;;;;;;5106075;28;20180;-82
2021/07/19 02:50:14;;;;;;;8.53;6.97;;;13.50;99.90;;;;;;5105889;28;20180;-82
2021/07/19 02:52:41;;;;;;;12.27;7.43;;;13.60;99.90;;;;;;5106910;28;20210;-82
2021/07/19 02:55:08;;;;;;;7.57;6.80;;;13.60;99.90;;;;;;5106113;28;20182;-82
2021/07/19 02:57:37;;;;;;;9.10;7.43;;;13.50;99.90;;;;;;5105272;28;20189;-82
2021/07/19 03:00:12;;;;;;;12.40;7.57;;;13.50;99.90;;;;;;5103328;28;20186;-82
2021/07/19 03:02:44;;;;;;;15.10;7.67;;;13.40;99.90;;;;;;5102388;28;20208;-82
2021/07/19 03:05:12;;;;;;;10.87;7.60;;;13.40;99.90;;;;;;5100656;28;20180;-82
2021/07/19 03:07:39;;;;;;;10.27;7.07;;;13.40;99.90;;;;;;5098815;28;20255;-82
2021/07/19 03:10:09;;;;;;;7.90;6.97;;;13.30;99.90;;;;;;5111811;28;20183;-82
2021/07/19 03:12:37;;;;;;;7.57;6.60;;;13.30;99.90;;;;;;5104107;28;20297;-82
2021/07/19 03:15:08;;;;;;;8.60;6.60;;;13.30;99.90;;;;;;5103613;28;20180;-83
2021/07/19 03:17:38;;;;;;;9.47;7.33;;;13.20;99.90;;;;;;5104699;28;20172;-82
2021/07/19 03:20:06;;;;;;;7.43;6.67;;;13.10;99.90;;;;;;5105022;28;20588;-82
2021/07/19 03:22:38;;;;;;;7.77;6.80;;;13.10;99.90;;;;;;5104177;28;20232;-82
2021/07/19 11:06:02;;;;;;;10.23;8.13;;;25.40;99.90;;;;;;5143749;27;20275;-84
2021/07/19 11:08:27;;;;;;;15.63;8.57;;;25.70;99.90;;;;;;5127320;28;20180;-84
2021/07/19 11:10:56;;;;;;;15.23;8.57;;;26.10;99.90;;;;;;5129678;28;20201;-83
2021/07/19 11:13:35;;;;;;;10.57;8.20;;;26.40;99.90;;;;;;5141162;27;20164;-84
2021/07/19 11:16:13;;;;;;;12.87;7.60;;;26.80;99.90;;;;;;5139535;28;20633;-84
2021/07/19 11:18:40;;;;;;;13.43;7.90;;;27.10;99.90;;;;;;5141742;27;20157;-84
2021/07/19 11:21:05;;;;;;;11.37;7.47;;;27.10;99.90;;;;;;5140091;28;20221;-84
2021/07/19 11:23:33;;;;;;;10.00;7.83;;;27.40;99.90;;;;;;5140378;28;20519;-82
2021/07/19 11:26:00;;;;;;;12.63;7.60;;;27.90;99.90;;;;;;5140884;28;20215;-83
2021/07/19 11:28:39;;;;;;;9.53;7.40;;;28.20;99.90;;;;;;5140170;28;20175;-84
2021/07/19 11:31:28;;;;;;;9.00;7.10;;;28.60;99.90;;;;;;5142001;27;20206;-82
2021/07/19 11:34:22;;;;;;;9.17;8.17;;;29.20;99.90;;;;;;5141198;27;20173;-82
2021/07/19 11:36:48;;;;;;;11.13;6.97;;;29.40;99.90;;;;;;5140390;27;20247;-82
2021/07/19 11:39:19;;;;;;;9.13;7.13;;;29.60;99.90;;;;;;5139841;27;20172;-82
2021/07/19 11:41:44;;;;;;;8.43;7.43;;;29.90;99.90;;;;;;5140157;27;20191;-82
2021/07/19 11:44:16;;;;;;;9.40;7.20;;;30.10;99.90;;;;;;5140157;27;20203;-84
2021/07/19 11:46:44;;;;;;;7.83;7.13;;;30.40;99.90;;;;;;5137639;28;20170;-82
2021/07/19 11:49:13;;;;;;;8.87;7.57;;;30.40;99.90;;;;;;5137993;28;20177;-81
2021/07/19 11:51:42;;;;;;;10.77;7.27;;;30.60;99.90;;;;;;5140120;27;20603;-80
2021/07/19 11:54:12;;;;;;;11.40;7.80;;;31.00;99.90;;;;;;5139113;28;20183;-81
2021/07/19 11:56:56;;;;;;;8.23;7.03;;;31.40;99.90;;;;;;5138237;28;20686;-81
2021/07/19 11:59:23;;;;;;;10.03;7.80;;;31.40;99.90;;;;;;5140433;28;20164;-82
2021/07/19 12:01:57;;;;;;;8.93;8.00;;;31.70;99.90;;;;;;5152804;28;20188;-82
2021/07/19 12:04:34;;;;;;;7.20;6.50;;;32.10;99.90;;;;;;5153872;27;20238;-82
2021/07/19 12:07:00;;;;;;;10.80;7.17;;;32.40;99.90;;;;;;5139307;28;20180;-82
2021/07/19 12:09:26;;;;;;;9.00;7.07;;;32.80;99.90;;;;;;5138719;28;20179;-82
2021/07/19 12:11:53;;;;;;;10.73;6.63;;;33.00;99.90;;;;;;5139408;27;20670;-82
2021/07/19 12:14:19;;;;;;;8.07;7.10;;;32.60;99.90;;;;;;5137136;28;20187;-82
2021/07/19 12:16:44;;;;;;;9.70;7.50;;;32.50;99.90;;;;;;5126813;28;20182;-82
2021/07/19 12:19:17;;;;;;;8.80;7.00;;;32.60;99.90;;;;;;5123855;28;20647;-82
2021/07/19 12:21:50;;;;;;;11.37;7.07;;;31.50;99.90;;;;;;5122561;28;20244;-81
2021/07/19 12:24:18;;;;;;;7.43;6.60;;;30.10;99.90;;;;;;5119983;28;20562;-81
2021/07/19 12:26:48;;;;;;;11.20;7.03;;;28.90;99.90;;;;;;5126857;28;20162;-79
2021/07/19 12:29:17;;;;;;;9.00;7.27;;;28.20;99.90;;;;;;5125213;28;20195;-81
2021/07/19 12:31:42;;;;;;;9.83;6.80;;;29.00;99.90;;;;;;5124344;28;20773;-82
2021/07/19 12:34:16;;;;;;;10.47;6.63;;;29.50;99.90;;;;;;5124932;28;20207;-82
2021/07/19 12:36:49;;;;;;;11.00;6.50;;;29.90;99.90;;;;;;5122659;28;20184;-81
2021/07/19 12:39:17;;;;;;;10.03;6.90;;;30.20;99.90;;;;;;5122907;28;20190;-82
2021/07/19 12:41:45;;;;;;;7.07;5.93;;;29.30;99.90;;;;;;5123505;28;20197;-82
2021/07/19 12:44:12;;;;;;;14.57;6.33;;;28.90;99.90;;;;;;5123444;28;20199;-82
2021/07/19 12:46:40;;;;;;;8.40;5.97;;;29.50;99.90;;;;;;5122248;28;20192;-82
2021/07/19 12:49:06;;;;;;;6.87;5.73;;;30.60;99.90;;;;;;5122051;28;20176;-81
2021/07/19 12:51:32;;;;;;;12.67;6.30;;;31.40;99.90;;;;;;5124887;27;20216;-80
2021/07/19 12:54:09;;;;;;;10.33;5.30;;;30.70;98.80;;;;;;5124950;28;20177;-82
2021/07/19 12:56:39;;;;;;;7.00;5.80;;;30.00;99.90;;;;;;5124281;28;20202;-81
2021/07/19 12:59:08;;;;;;;6.47;5.83;;;30.60;99.90;;;;;;5125061;28;20182;-82
2021/07/19 13:01:39;;;;;;;6.80;6.03;;;31.20;99.90;;;;;;5124944;28;20213;-81
2021/07/19 13:04:11;;;;;;;10.90;5.13;;;31.80;99.90;;;;;;5122316;28;20302;-81
2021/07/19 13:06:42;;;;;;;7.83;5.60;;;32.00;99.90;;;;;;5126852;28;20168;-81
2021/07/19 13:09:10;;;;;;;6.97;6.07;;;32.00;99.60;;;;;;5127402;28;20180;-81
2021/07/19 13:11:39;;;;;;;8.57;5.37;;;31.50;99.00;;;;;;5124458;28;20244;-81
2021/07/19 13:14:18;;;;;;;6.33;5.73;;;30.10;96.90;;;;;;5125650;27;20231;-81
2021/07/19 13:16:58;;;;;;;8.70;5.60;;;28.80;98.70;;;;;;5126171;28;20180;-81
2021/07/19 13:19:30;;;;;;;10.57;4.90;;;28.60;99.50;;;;;;5125889;28;20236;-81
2021/07/19 13:21:56;;;;;;;7.87;4.43;;;29.10;99.90;;;;;;5124720;28;20202;-81
2021/07/19 13:24:22;;;;;;;8.90;4.93;;;29.80;99.90;;;;;;5124724;28;20197;-82
2021/07/19 13:26:51;;;;;;;11.10;5.17;;;30.30;99.90;;;;;;5118599;28;20199;-81
2021/07/19 13:29:17;;;;;;;6.53;4.83;;;30.30;99.90;;;;;;5121174;28;20224;-81
2021/07/19 13:31:42;;;;;;;7.47;4.57;;;29.20;96.40;;;;;;5126024;28;20604;-81
2021/07/19 13:34:16;;;;;;;7.70;5.33;;;28.70;99.90;;;;;;5124732;28;20656;-82
2021/07/19 13:36:48;;;;;;;6.93;4.50;;;29.20;99.90;;;;;;5124995;28;20238;-81
2021/07/19 13:39:26;;;;;;;7.10;5.07;;;29.40;97.00;;;;;;5123062;28;20608;-82
2021/07/19 13:42:06;;;;;;;9.93;5.00;;;29.80;99.90;;;;;;5123908;28;20194;-82
2021/07/19 13:44:33;;;;;;;7.83;5.07;;;30.20;99.90;;;;;;5124791;28;20198;-82
2021/07/19 13:47:00;;;;;;;5.50;4.57;;;30.40;99.90;;;;;;5123363;28;20248;-82
2021/07/19 13:49:26;;;;;;;6.47;4.23;;;30.60;99.60;;;;;;5120882;28;20183;-82
2021/07/19 13:51:52;;;;;;;8.60;4.53;;;30.60;96.90;;;;;;5120958;28;20192;-83
2021/07/19 13:54:18;;;;;;;8.10;5.13;;;30.60;99.90;;;;;;5124870;28;20179;-82
2021/07/19 13:56:43;;;;;;;11.37;4.40;;;30.50;99.90;;;;;;5123789;28;20271;-82
2021/07/19 13:59:09;;;;;;;4.90;4.20;;;30.40;99.90;;;;;;5122782;28;20229;-82
2021/07/19 14:01:36;;;;;;;5.97;4.93;;;30.20;99.90;;;;;;5123006;28;20258;-82
2021/07/19 14:04:03;;;;;;;5.47;4.87;;;29.30;98.70;;;;;;5123396;28;20226;-82
2021/07/19 14:06:28;;;;;;;4.80;4.30;;;28.10;99.90;;;;;;5123715;28;20180;-82
2021/07/19 14:08:54;;;;;;;6.03;4.37;;;27.30;99.90;;;;;;5123628;28;20175;-82
2021/07/19 14:11:20;;;;;;;7.53;4.50;;;26.60;99.90;;;;;;5122604;28;20195;-82
2021/07/19 14:13:45;;;;;;;6.97;4.50;;;26.90;99.90;;;;;;5122432;28;20185;-82
2021/07/19 14:16:11;;;;;;;8.50;4.30;;;27.60;99.90;;;;;;5123846;28;20207;-82
2021/07/19 14:18:37;;;;;;;9.53;4.43;;;28.30;99.90;;;;;;5123405;28;20229;-82
2021/07/19 14:21:03;;;;;;;6.13;4.33;;;28.80;99.90;;;;;;5121757;28;20197;-82
2021/07/19 14:23:29;;;;;;;7.80;3.83;;;29.30;99.90;;;;;;5121589;28;20174;-81
2021/07/19 14:25:54;;;;;;;9.10;4.53;;;29.50;99.90;;;;;;5121464;28;20212;-82
2021/07/19 14:28:20;;;;;;;10.07;4.27;;;29.00;99.80;;;;;;5125050;28;20180;-82
2021/07/19 14:30:46;;;;;;;7.23;4.30;;;28.70;99.90;;;;;;5134463;28;20180;-82
2021/07/19 14:33:11;;;;;;;7.77;4.27;;;28.90;99.90;;;;;;5138707;28;20156;-82
2021/07/19 14:35:37;;;;;;;6.27;4.10;;;29.30;99.90;;;;;;5118517;28;20193;-82
2021/07/19 14:38:03;;;;;;;7.97;4.07;;;29.50;99.90;;;;;;5128699;28;20184;-82
2021/07/19 14:40:29;;;;;;;12.87;4.20;;;29.80;99.90;;;;;;5121575;28;20191;-82
2021/07/19 14:42:54;;;;;;;7.73;4.20;;;29.80;99.90;;;;;;5123425;28;20194;-82
2021/07/19 14:45:20;;;;;;;9.27;4.00;;;29.80;99.90;;;;;;5123169;28;20198;-82
2021/07/19 14:47:46;;;;;;;8.53;4.30;;;29.50;95.20;;;;;;5124337;28;20237;-82
2021/07/19 14:50:13;;;;;;;6.97;3.80;;;29.30;99.90;;;;;;5124083;28;20181;-82
2021/07/19 14:52:39;;;;;;;5.60;3.53;;;29.20;99.90;;;;;;5124198;28;20191;-82
2021/07/19 14:55:06;;;;;;;8.67;3.60;;;29.30;99.90;;;;;;5122799;28;20183;-82
2021/07/19 14:57:32;;;;;;;5.07;3.57;;;29.40;99.90;;;;;;5123413;28;20210;-82
2021/07/19 14:59:58;;;;;;;6.77;3.70;;;29.60;99.90;;;;;;5123833;28;20179;-82
2021/07/19 15:02:24;;;;;;;7.47;3.50;;;29.60;97.40;;;;;;5124909;28;20203;-82
2021/07/19 15:04:50;;;;;;;5.33;3.43;;;29.50;99.90;;;;;;5126853;28;20220;-82
2021/07/19 15:07:15;;;;;;;7.60;3.20;;;29.50;99.90;;;;;;5129613;28;20175;-82
2021/07/19 15:09:41;;;;;;;8.13;3.50;;;29.30;99.80;;;;;;5135515;28;20167;-81
2021/07/19 15:12:07;;;;;;;6.17;3.10;;;29.60;99.90;;;;;;5134985;28;20192;-82
2021/07/19 15:14:33;;;;;;;14.77;3.43;;;29.70;99.90;;;;;;5130467;28;20199;-82
2021/07/19 15:16:59;;;;;;;8.33;3.37;;;30.00;98.30;;;;;;5121847;28;20193;-82
2021/07/19 15:19:24;;;;;;;7.67;2.90;;;29.90;97.50;;;;;;5123447;28;20175;-81
2021/07/19 15:21:50;;;;;;;10.80;3.20;;;29.90;95.10;;;;;;5121538;28;20255;-82
2021/07/19 15:24:16;;;;;;;4.50;2.70;;;29.80;96.40;;;;;;5122303;28;20200;-82
2021/07/19 15:26:42;;;;;;;6.43;3.43;;;29.20;95.80;;;;;;5123030;28;20251;-82
2021/07/19 15:29:10;;;;;;;5.87;2.93;;;28.90;95.20;;;;;;5122866;28;20180;-82
2021/07/19 15:31:37;;;;;;;6.67;3.33;;;29.00;98.10;;;;;;5122884;28;20188;-83
2021/07/19 15:34:03;;;;;;;5.30;3.17;;;29.00;96.20;;;;;;5121085;28;20183;-82
2021/07/19 15:36:29;;;;;;;5.47;2.80;;;28.80;96.30;;;;;;5122146;28;20618;-82
2021/07/19 15:38:55;;;;;;;9.10;2.70;;;28.70;94.70;;;;;;5122845;28;20174;-82
2021/07/19 15:41:25;;;;;;;12.80;2.80;;;28.90;97.30;;;;;;5121940;28;20206;-82
2021/07/19 15:43:50;;;;;;;7.63;2.87;;;29.00;96.30;;;;;;5122831;28;20182;-82
2021/07/19 15:46:20;;;;;;;10.60;3.43;;;29.00;95.90;;;;;;5123357;28;20175;-82
2021/07/19 15:48:46;;;;;;;4.20;2.97;;;29.10;96.30;;;;;;5122788;28;20527;-81
2021/07/19 15:51:12;;;;;;;3.87;3.00;;;29.10;95.00;;;;;;5124298;28;20204;-82
2021/07/19 15:53:38;;;;;;;4.87;3.00;;;29.20;97.30;;;;;;5126932;28;20256;-82
2021/07/19 15:56:04;;;;;;;7.70;2.87;;;;;;;;;;5126119;28;20182;-83
2021/07/19 15:58:29;;;;;;;6.90;2.90;;;29.10;94.90;;;;;;5127339;28;20179;-82
2021/07/19 16:00:55;;;;;;;8.93;3.10;;;29.10;96.40;;;;;;5126726;28;20208;-82
2021/07/19 16:03:21;;;;;;;4.27;2.90;;;29.00;97.60;;;;;;5128733;28;20182;-82
2021/07/19 16:05:48;;;;;;;4.10;2.90;;;29.00;96.40;;;;;;5129219;28;20258;-82
2021/07/19 16:08:14;;;;;;;8.67;3.37;;;;;;;;;;5125854;28;20171;-82
2021/07/19 16:10:40;;;;;;;9.07;3.10;;;;;;;;;;5126913;28;20199;-82
2021/07/19 16:13:06;;;;;;;7.23;3.30;;;28.90;95.20;;;;;;5127253;28;20179;-82
2021/07/19 16:15:32;;;;;;;7.37;3.50;;;28.70;95.00;;;;;;5126551;28;20176;-81
2021/07/19 16:17:57;;;;;;;9.13;4.40;;;28.60;99.70;;;;;;5124743;28;20195;-80
2021/07/19 16:20:23;;;;;;;10.33;2.93;;;28.40;97.40;;;;;;5122952;28;20219;-78
2021/07/19 16:22:49;;;;;;;6.43;2.67;;;28.40;95.30;;;;;;5126518;28;20199;-80
2021/07/19 16:25:15;;;;;;;5.43;2.70;;;28.40;94.00;;;;;;5125779;28;20192;-78
2021/07/19 16:27:40;;;;;;;6.57;2.77;;;28.10;94.60;;;;;;5124134;28;20183;-79
2021/07/19 16:30:08;;;;;;;5.43;2.93;;;27.60;94.80;;;;;;5123671;28;20164;-78
2021/07/19 16:32:34;;;;;;;5.17;2.60;;;27.00;95.80;;;;;;5123424;28;20201;-78
2021/07/19 16:35:00;;;;;;;6.80;2.80;;;26.90;96.30;;;;;;5122561;28;20266;-79
2021/07/19 16:37:25;;;;;;;8.13;3.00;;;26.60;96.30;;;;;;5121620;28;20235;-78
2021/07/19 16:39:51;;;;;;;9.00;2.90;;;26.10;99.90;;;;;;5122025;28;20303;-78
2021/07/19 16:42:16;;;;;;;4.87;2.20;;;25.40;99.90;;;;;;5120957;28;20237;-77
2021/07/19 16:44:42;;;;;;;4.27;2.70;;;24.60;99.90;;;;;;5117787;28;20231;-77
2021/07/19 16:47:08;;;;;;;7.87;3.30;;;24.10;99.90;;;;;;5127330;28;20199;-80
2021/07/19 16:49:34;;;;;;;7.53;2.63;;;23.80;99.90;;;;;;5124837;28;20186;-80
2021/07/19 16:52:00;;;;;;;8.23;3.13;;;23.60;99.90;;;;;;5124046;28;20193;-80
2021/07/19 16:54:26;;;;;;;3.03;2.53;;;23.40;99.90;;;;;;5125810;28;20236;-80
2021/07/19 16:56:51;;;;;;;3.57;2.70;;;23.30;99.90;;;;;;5133514;28;20177;-80
2021/07/19 16:59:17;;;;;;;2.90;2.40;;;23.00;99.90;;;;;;5136485;28;20179;-79
2021/07/19 17:01:43;;;;;;;4.40;2.90;;;22.90;99.90;;;;;;5126186;28;20290;-79
2021/07/19 17:04:08;;;;;;;3.77;2.73;;;22.80;99.90;;;;;;5123110;28;20206;-79
2021/07/19 17:06:34;;;;;;;3.43;2.73;;;22.70;99.90;;;;;;5124536;28;20167;-79
2021/07/19 17:09:00;;;;;;;7.50;3.10;;;22.60;99.90;;;;;;5123207;28;20182;-79
2021/07/19 17:11:26;;;;;;;5.53;3.20;;;22.50;99.90;;;;;;5122183;28;20184;-80
2021/07/19 17:13:52;;;;;;;5.00;2.73;;;22.40;99.90;;;;;;5123109;28;20186;-78
2021/07/19 17:16:17;;;;;;;6.33;2.80;;;22.30;99.90;;;;;;5125096;28;20168;-79
2021/07/19 17:18:43;;;;;;;5.17;2.70;;;22.30;99.90;;;;;;5122235;28;20186;-81
2021/07/19 17:21:09;;;;;;;5.20;3.10;;;22.30;99.90;;;;;;5120278;28;20195;-81
2021/07/19 17:23:35;;;;;;;3.40;2.83;;;22.30;99.90;;;;;;5125188;28;20167;-79
2021/07/19 17:26:01;;;;;;;4.53;2.10;;;22.20;99.90;;;;;;5124583;28;20234;-79
2021/07/19 17:28:27;;;;;;;4.87;2.80;;;22.20;99.90;;;;;;5125014;28;20178;-80
2021/07/19 17:30:54;;;;;;;9.17;3.03;;;22.10;99.90;;;;;;5123702;28;20267;-83
2021/07/19 17:33:20;;;;;;;5.10;2.83;;;22.10;99.90;;;;;;5125407;28;20163;-83
2021/07/19 17:35:45;;;;;;;2.63;2.30;;;22.10;99.90;;;;;;5118915;28;20185;-76
2021/07/19 17:38:14;;;;;;;4.47;2.37;;;22.00;99.90;;;;;;5116047;28;20175;-76
2021/07/19 17:40:40;;;;;;;6.43;3.03;;;22.00;99.90;;;;;;5115454;28;20172;-77
2021/07/19 17:43:08;;;;;;;6.10;2.47;;;21.90;99.90;;;;;;5114667;28;20237;-77
2021/07/19 17:45:34;;;;;;;5.07;2.30;;;21.90;99.90;;;;;;5117767;28;20220;-79
2021/07/19 17:47:59;;;;;;;7.43;2.83;;;21.80;99.90;;;;;;5124311;28;20176;-80
2021/07/19 17:50:27;;;;;;;5.23;2.73;;;21.70;99.90;;;;;;5123488;28;20179;-80
2021/07/19 17:52:54;;;;;;;3.47;2.23;;;21.70;99.90;;;;;;5122837;28;20229;-79
2021/07/19 17:55:24;;;;;;;4.87;2.37;;;21.60;99.90;;;;;;5116833;28;20189;-77
2021/07/19 17:57:50;;;;;;;6.33;2.60;;;21.60;99.90;;;;;;5120450;28;20158;-80
2021/07/19 18:00:16;;;;;;;4.27;2.30;;;21.60;99.90;;;;;;5117410;28;20195;-78
2021/07/19 18:02:42;;;;;;;7.17;2.20;;;21.50;99.90;;;;;;5122446;28;20206;-79
2021/07/19 18:05:08;;;;;;;7.07;2.20;;;21.50;99.90;;;;;;5122610;28;20270;-79
2021/07/19 18:07:34;;;;;;;5.77;2.90;;;21.50;99.90;;;;;;5122893;28;20336;-79
2021/07/19 18:10:00;;;;;;;3.83;2.40;;;21.40;99.90;;;;;;5121913;28;20214;-78
2021/07/19 18:12:27;;;;;;;4.80;2.87;;;21.40;99.90;;;;;;5122346;28;20189;-78
2021/07/19 18:14:52;;;;;;;3.20;2.60;;;21.30;99.90;;;;;;5122208;28;20172;-79
2021/07/19 18:17:18;;;;;;;6.13;2.53;;;21.20;99.90;;;;;;5119821;28;20192;-79
2021/07/19 18:19:44;;;;;;;5.70;2.60;;;21.10;99.90;;;;;;5119060;28;20185;-78
2021/07/19 18:32:42;;;;;;;6.43;2.63;;;20.80;99.90;;;;;;5129297;28;20221;-80
2021/07/19 18:35:09;;;;;;;10.17;2.57;;;20.80;99.90;;;;;;5129212;28;20176;-80
2021/07/19 18:37:35;;;;;;;3.33;2.27;;;20.70;99.90;;;;;;5126862;28;20229;-80
2021/07/19 18:40:01;;;;;;;5.53;2.50;;;20.70;99.90;;;;;;5125383;28;20179;-79
2021/07/19 18:42:27;;;;;;;5.63;2.30;;;20.60;99.90;;;;;;5124648;28;20281;-80
2021/07/19 18:44:53;;;;;;;4.43;2.40;;;20.50;99.90;;;;;;5132720;28;20203;-80
2021/07/19 18:47:20;;;;;;;4.40;2.50;;;20.40;99.90;;;;;;5132296;28;20203;-83
2021/07/19 18:49:47;;;;;;;5.03;2.50;;;20.40;99.90;;;;;;5133420;28;20174;-82
2021/07/19 18:52:13;;;;;;;2.83;2.20;;;20.30;99.90;;;;;;5129712;28;20193;-82
2021/07/19 18:54:39;;;;;;;7.83;2.47;;;20.20;99.90;;;;;;5125620;28;20180;-83
2021/07/19 18:57:05;;;;;;;8.63;2.60;;;20.10;99.90;;;;;;5123736;28;20189;-83
2021/07/19 18:59:32;;;;;;;9.33;3.00;;;20.00;99.90;;;;;;5122801;28;20273;-83
2021/07/19 19:01:58;;;;;;;8.57;3.40;;;20.00;99.90;;;;;;5122712;28;20206;-83
2021/07/19 19:04:23;;;;;;;5.33;3.63;;;19.90;99.90;;;;;;5120173;28;20214;-82
2021/07/19 19:06:49;;;;;;;7.97;3.50;;;19.80;99.90;;;;;;5122103;28;20541;-82
2021/07/19 19:09:15;;;;;;;8.10;3.83;;;19.70;99.90;;;;;;5134955;28;20178;-82
2021/07/19 19:11:41;;;;;;;17.07;5.97;;;19.70;99.90;;;;;;5138710;28;20201;-82
2021/07/19 19:14:09;;;;;;;14.03;7.00;;;19.60;99.90;;;;;;5126060;28;20169;-82
2021/07/19 19:16:36;;;;;;;12.50;6.77;;;19.50;99.90;;;;;;5125392;28;20177;-82
2021/07/19 19:19:04;;;;;;;9.03;4.37;;;19.50;99.90;;;;;;5123668;28;20181;-81
2021/07/19 19:21:31;;;;;;;13.67;3.57;;;19.40;99.90;;;;;;5124303;28;20198;-82
2021/07/19 19:23:56;;;;;;;6.50;4.07;;;19.40;99.90;;;;;;5122776;28;20180;-82
2021/07/19 19:26:22;;;;;;;6.00;3.37;;;19.40;99.90;;;;;;5122951;28;20261;-82
2021/07/19 19:28:49;;;;;;;5.67;3.47;;;19.40;99.90;;;;;;5128307;28;20179;-83
2021/07/19 19:31:17;;;;;;;5.20;3.80;;;19.30;99.90;;;;;;5128403;28;20193;-82
2021/07/19 19:33:44;;;;;;;6.20;4.23;;;19.30;99.90;;;;;;5127967;28;20211;-83
2021/07/19 19:36:10;;;;;;;5.60;4.30;;;;;;;;;;5127568;28;20231;-84
2021/07/19 19:38:36;;;;;;;6.87;4.20;;;19.10;99.90;;;;;;5128062;28;20189;-83
2021/07/19 19:41:03;;;;;;;8.60;4.03;;;19.00;99.90;;;;;;5127683;28;20201;-83
2021/07/19 19:43:33;;;;;;;9.20;4.43;;;19.00;99.90;;;;;;5128674;28;20260;-83
2021/07/19 19:46:04;;;;;;;6.60;4.00;;;18.90;99.90;;;;;;5130799;28;20285;-83
2021/07/19 19:48:30;;;;;;;13.87;8.60;;;18.90;99.90;;;;;;5128993;28;20223;-83
2021/07/19 19:50:56;;;;;;;11.23;8.03;;;18.80;99.90;;;;;;5129355;27;20190;-83
2021/07/19 19:53:22;;;;;;;11.63;6.77;;;18.80;99.90;;;;;;5128923;28;20184;-83
2021/07/19 19:55:49;;;;;;;8.27;5.60;;;18.70;99.90;;;;;;5129915;28;20627;-83
2021/07/19 19:58:16;;;;;;;8.80;5.00;;;18.70;99.90;;;;;;5127872;28;20230;-83
2021/07/19 20:00:43;;;;;;;10.27;4.77;;;18.60;99.90;;;;;;5127538;28;20198;-82
2021/07/19 20:03:08;;;;;;;6.10;3.70;;;18.70;99.90;;;;;;5128084;28;20178;-82
2021/07/19 20:05:34;;;;;;;7.17;3.67;;;;;;;;;;5127084;28;20215;-83
2021/07/19 20:08:00;;;;;;;6.83;3.83;;;18.70;99.90;;;;;;5127248;28;20171;-83
2021/07/19 20:10:27;;;;;;;7.07;3.47;;;;;;;;;;5126669;28;20205;-83
2021/07/19 20:12:54;;;;;;;4.37;3.33;;;18.70;99.90;;;;;;5126389;28;20203;-83
2021/07/19 20:15:20;;;;;;;6.87;3.53;;;18.70;99.90;;;;;;5127843;28;20239;-83
2021/07/19 20:17:47;;;;;;;8.90;2.97;;;;;;;;;;5125472;28;20176;-82
2021/07/19 20:20:14;;;;;;;9.10;3.90;;;18.70;99.90;;;;;;5125977;28;20190;-83
2021/07/19 20:22:41;;;;;;;4.83;3.00;;;18.60;99.90;;;;;;5123640;28;20223;-82
2021/07/19 20:25:07;;;;;;;7.53;3.60;;;18.60;99.90;;;;;;5133247;28;20218;-82
2021/07/19 20:27:34;;;;;;;3.80;2.97;;;18.60;99.90;;;;;;5131550;27;20176;-83
2021/07/19 20:30:00;;;;;;;10.00;3.37;;;18.60;99.90;;;;;;5132432;28;20172;-82
2021/07/19 20:32:26;;;;;;;5.80;3.40;;;;;;;;;;5127352;28;20195;-83
2021/07/19 20:34:52;;;;;;;8.07;4.20;;;18.60;99.90;;;;;;5127407;28;20173;-83
2021/07/19 20:37:18;;;;;;;7.40;4.30;;;18.60;99.90;;;;;;5127857;28;20176;-83